sensor_id;sensor_type;location;lat;lon;timestamp;pressure;altitude;pressure_sealevel;temperature;humidity
7168;BME280;3625;51.762;14.320;2023-05-25T00:00:36;101408.84;;;7.43;100.00
7168;BME280;3625;51.762;14.320;2023-05-25T00:03:24;101406.22;;;7.42;100.00
7168;BME280;3625;51.762;14.320;2023-05-25T00:05:54;101410.56;;;7.40;100.00
7168;BME280;3625;51.762;14.320;2023-05-25T00:08:24;101408.78;;;7.36;100.00
7168;BME280;3625;51.762;14.320;2023-05-25T00:10:53;101414.06;;;7.34;100.00
7168;BME280;3625;51.762;14.320;2023-05-25T00:13:22;101403.53;;;7.33;100.00
7168;BME280;3625;51.762;14.320;2023-05-25T00:15:51;101403.53;;;7.33;100.00
7168;BME280;3625;51.762;14.320;2023-05-25T00:18:19;101401.72;;;7.29;100.00
7168;BME280;3625;51.762;14.320;2023-05-25T00:20:47;101405.25;;;7.26;100.00
7168;BME280;3625;51.762;14.320;2023-05-25T00:23:16;101409.63;;;7.26;100.00
7168;BME280;3625;51.762;14.320;2023-05-25T00:25:46;101395.50;;;7.14;100.00
7168;BME280;3625;51.762;14.320;2023-05-25T00:28:16;101405.19;;;7.20;100.00
7168;BME280;3625;51.762;14.320;2023-05-25T00:30:44;101406.91;;;7.18;100.00
7168;BME280;3625;51.762;14.320;2023-05-25T00:33:13;101385.78;;;7.06;100.00
7168;BME280;3625;51.762;14.320;2023-05-25T00:35:42;101407.78;;;7.15;100.00
7168;BME280;3625;51.762;14.320;2023-05-25T00:38:13;101417.44;;;7.16;100.00
7168;BME280;3625;51.762;14.320;2023-05-25T00:40:41;101364.56;;;6.85;100.00
7168;BME280;3625;51.762;14.320;2023-05-25T00:43:11;101409.50;;;7.10;100.00
7168;BME280;3625;51.762;14.320;2023-05-25T00:45:41;101413.88;;;7.10;100.00
7168;BME280;3625;51.762;14.320;2023-05-25T00:48:11;101419.13;;;7.07;100.00
7168;BME280;3625;51.762;14.320;2023-05-25T00:50:41;101400.59;;;6.93;100.00
7168;BME280;3625;51.762;14.320;2023-05-25T00:53:12;101425.22;;;7.03;100.00
7168;BME280;3625;51.762;14.320;2023-05-25T00:55:48;101387.38;;;6.84;100.00
7168;BME280;3625;51.762;14.320;2023-05-25T00:58:20;101417.34;;;7.00;100.00
7168;BME280;3625;51.762;14.320;2023-05-25T01:00:56;101426.09;;;7.00;100.00
7168;BME280;3625;51.762;14.320;2023-05-25T01:03:30;101427.84;;;6.98;100.00
7168;BME280;3625;51.762;14.320;2023-05-25T01:06:06;101400.53;;;6.82;100.00
7168;BME280;3625;51.762;14.320;2023-05-25T01:08:39;101428.66;;;6.93;100.00
7168;BME280;3625;51.762;14.320;2023-05-25T01:11:11;101433.03;;;6.91;100.00
7168;BME280;3625;51.762;14.320;2023-05-25T01:13:44;101441.75;;;6.87;100.00
7168;BME280;3625;51.762;14.320;2023-05-25T01:16:15;101436.47;;;6.85;100.00
7168;BME280;3625;51.762;14.320;2023-05-25T01:18:44;101440.00;;;6.82;100.00
7168;BME280;3625;51.762;14.320;2023-05-25T01:21:20;101433.84;;;6.82;100.00
7168;BME280;3625;51.762;14.320;2023-05-25T01:24:00;101442.56;;;6.79;100.00
7168;BME280;3625;51.762;14.320;2023-05-25T01:26:37;101428.47;;;6.71;100.00
7168;BME280;3625;51.762;14.320;2023-05-25T01:29:08;101438.19;;;6.80;100.00
7168;BME280;3625;51.762;14.320;2023-05-25T01:31:38;101409.13;;;6.63;100.00
7168;BME280;3625;51.762;14.320;2023-05-25T01:34:11;101432.06;;;6.79;100.00
7168;BME280;3625;51.762;14.320;2023-05-25T01:36:42;101432.00;;;6.76;100.00
7168;BME280;3625;51.762;14.320;2023-05-25T01:39:11;101392.34;;;6.51;100.00
7168;BME280;3625;51.762;14.320;2023-05-25T01:41:40;101432.00;;;6.72;100.00
7168;BME280;3625;51.762;14.320;2023-05-25T01:44:09;101343.91;;;6.21;100.00
7168;BME280;3625;51.762;14.320;2023-05-25T01:46:39;101433.72;;;6.70;100.00
7168;BME280;3625;51.762;14.320;2023-05-25T01:49:20;101428.44;;;6.68;100.00
7168;BME280;3625;51.762;14.320;2023-05-25T01:52:05;101431.94;;;6.67;100.00
7168;BME280;3625;51.762;14.320;2023-05-25T01:54:38;101430.16;;;6.66;100.00
7168;BME280;3625;51.762;14.320;2023-05-25T01:57:14;101431.03;;;6.64;100.00
7168;BME280;3625;51.762;14.320;2023-05-25T01:59:46;101396.72;;;6.50;100.00
7168;BME280;3625;51.762;14.320;2023-05-25T02:02:18;101430.16;;;6.63;100.00
7168;BME280;3625;51.762;14.320;2023-05-25T02:04:52;101424.88;;;6.62;100.00
7168;BME280;3625;51.762;14.320;2023-05-25T02:07:23;101428.38;;;6.61;100.00
7168;BME280;3625;51.762;14.320;2023-05-25T02:09:52;101427.47;;;6.59;100.00
7168;BME280;3625;51.762;14.320;2023-05-25T02:12:21;101421.31;;;6.58;100.00
7168;BME280;3625;51.762;14.320;2023-05-25T02:14:49;101425.72;;;6.59;100.00
7168;BME280;3625;51.762;14.320;2023-05-25T02:17:18;101419.59;;;6.57;100.00
7168;BME280;3625;51.762;14.320;2023-05-25T02:19:46;101405.41;;;6.43;100.00
7168;BME280;3625;51.762;14.320;2023-05-25T02:22:19;101423.03;;;6.53;100.00
7168;BME280;3625;51.762;14.320;2023-05-25T02:24:49;101427.41;;;6.53;100.00
7168;BME280;3625;51.762;14.320;2023-05-25T02:27:18;101432.66;;;6.48;100.00
7168;BME280;3625;51.762;14.320;2023-05-25T02:29:47;101410.63;;;6.37;100.00
7168;BME280;3625;51.762;14.320;2023-05-25T02:32:16;101428.25;;;6.47;100.00
7168;BME280;3625;51.762;14.320;2023-05-25T02:34:44;101428.22;;;6.46;100.00
7168;BME280;3625;51.762;14.320;2023-05-25T02:37:14;101383.22;;;6.15;100.00
7168;BME280;3625;51.762;14.320;2023-05-25T02:39:42;101358.63;;;6.07;100.00
7168;BME280;3625;51.762;14.320;2023-05-25T02:42:12;101428.25;;;6.47;100.00
7168;BME280;3625;51.762;14.320;2023-05-25T02:44:41;101430.03;;;6.48;100.00
7168;BME280;3625;51.762;14.320;2023-05-25T02:47:14;101430.00;;;6.50;100.00
7168;BME280;3625;51.762;14.320;2023-05-25T02:49:44;101425.66;;;6.49;100.00
7168;BME280;3625;51.762;14.320;2023-05-25T02:52:13;101368.34;;;6.13;100.00
7168;BME280;3625;51.762;14.320;2023-05-25T02:54:42;101423.00;;;6.47;100.00
7168;BME280;3625;51.762;14.320;2023-05-25T02:57:18;101430.94;;;6.53;100.00
7168;BME280;3625;51.762;14.320;2023-05-25T02:59:47;101424.78;;;6.51;100.00
7168;BME280;3625;51.762;14.320;2023-05-25T03:02:18;101430.91;;;6.52;100.00
7168;BME280;3625;51.762;14.320;2023-05-25T03:04:47;101412.41;;;6.41;100.00
7168;BME280;3625;51.762;14.320;2023-05-25T03:07:20;101435.31;;;6.54;100.00
7168;BME280;3625;51.762;14.320;2023-05-25T03:09:49;101428.34;;;6.56;100.00
7168;BME280;3625;51.762;14.320;2023-05-25T03:12:19;101437.16;;;6.61;100.00
7168;BME280;3625;51.762;14.320;2023-05-25T03:14:49;101355.19;;;6.14;100.00
7168;BME280;3625;51.762;14.320;2023-05-25T03:17:19;101441.56;;;6.67;100.00
7168;BME280;3625;51.762;14.320;2023-05-25T03:19:48;101444.25;;;6.71;100.00
7168;BME280;3625;51.762;14.320;2023-05-25T03:22:16;101439.91;;;6.76;100.00
7168;BME280;3625;51.762;14.320;2023-05-25T03:24:45;101438.19;;;6.78;100.00
7168;BME280;3625;51.762;14.320;2023-05-25T03:27:16;101440.84;;;6.85;100.00
7168;BME280;3625;51.762;14.320;2023-05-25T03:29:47;101442.66;;;6.89;100.00
7168;BME280;3625;51.762;14.320;2023-05-25T03:32:18;101453.22;;;6.92;100.00
7168;BME280;3625;51.762;14.320;2023-05-25T03:34:48;101447.13;;;6.97;100.00
7168;BME280;3625;51.762;14.320;2023-05-25T03:37:17;101451.53;;;7.03;100.00
7168;BME280;3625;51.762;14.320;2023-05-25T03:39:47;101449.81;;;7.09;100.00
7168;BME280;3625;51.762;14.320;2023-05-25T03:42:15;101451.66;;;7.15;100.00
7168;BME280;3625;51.762;14.320;2023-05-25T03:44:44;101457.81;;;7.22;100.00
7168;BME280;3625;51.762;14.320;2023-05-25T03:47:13;101457.00;;;7.30;100.00
7168;BME280;3625;51.762;14.320;2023-05-25T03:49:42;101450.06;;;7.38;100.00
7168;BME280;3625;51.762;14.320;2023-05-25T03:52:12;101459.75;;;7.45;100.00
7168;BME280;3625;51.762;14.320;2023-05-25T03:54:41;101458.03;;;7.53;100.00
7168;BME280;3625;51.762;14.320;2023-05-25T03:57:10;101466.88;;;7.62;100.00
7168;BME280;3625;51.762;14.320;2023-05-25T03:59:38;101460.78;;;7.70;100.00
7168;BME280;3625;51.762;14.320;2023-05-25T04:02:08;101466.09;;;7.81;100.00
7168;BME280;3625;51.762;14.320;2023-05-25T04:04:38;101459.16;;;7.93;100.00
7168;BME280;3625;51.762;14.320;2023-05-25T04:07:08;101467.09;;;8.01;100.00
7168;BME280;3625;51.762;14.320;2023-05-25T04:09:36;101451.25;;;8.00;100.00
7168;BME280;3625;51.762;14.320;2023-05-25T04:12:05;101472.44;;;8.21;100.00
7168;BME280;3625;51.762;14.320;2023-05-25T04:14:34;101461.91;;;8.27;100.00
7168;BME280;3625;51.762;14.320;2023-05-25T04:17:03;101464.59;;;8.35;100.00
7168;BME280;3625;51.762;14.320;2023-05-25T04:19:32;101461.13;;;8.43;100.00
7168;BME280;3625;51.762;14.320;2023-05-25T04:22:02;101464.66;;;8.53;100.00
7168;BME280;3625;51.762;14.320;2023-05-25T04:24:30;101457.66;;;8.62;100.00
7168;BME280;3625;51.762;14.320;2023-05-25T04:27:00;101467.31;;;8.69;100.00
7168;BME280;3625;51.762;14.320;2023-05-25T04:29:29;101465.56;;;8.78;100.00
7168;BME280;3625;51.762;14.320;2023-05-25T04:32:21;101462.06;;;8.88;100.00
7168;BME280;3625;51.762;14.320;2023-05-25T04:35:08;101468.25;;;8.99;100.00
7168;BME280;3625;51.762;14.320;2023-05-25T04:37:43;101455.06;;;9.08;100.00
7168;BME280;3625;51.762;14.320;2023-05-25T04:40:14;101464.72;;;9.20;100.00
7168;BME280;3625;51.762;14.320;2023-05-25T04:42:43;101475.28;;;9.32;100.00
7168;BME280;3625;51.762;14.320;2023-05-25T04:45:11;101477.03;;;9.42;100.00
7168;BME280;3625;51.762;14.320;2023-05-25T04:47:44;101471.75;;;9.51;100.00
7168;BME280;3625;51.762;14.320;2023-05-25T04:50:13;101471.69;;;9.60;100.00
7168;BME280;3625;51.762;14.320;2023-05-25T04:52:43;101475.19;;;9.71;100.00
7168;BME280;3625;51.762;14.320;2023-05-25T04:55:12;101480.47;;;9.82;100.00
7168;BME280;3625;51.762;14.320;2023-05-25T04:57:42;101471.63;;;9.92;100.00
7168;BME280;3625;51.762;14.320;2023-05-25T05:00:12;101478.66;;;10.01;100.00
7168;BME280;3625;51.762;14.320;2023-05-25T05:02:42;101483.03;;;10.11;100.00
7168;BME280;3625;51.762;14.320;2023-05-25T05:05:12;101487.41;;;10.21;100.00
7168;BME280;3625;51.762;14.320;2023-05-25T05:07:42;101486.47;;;10.30;100.00
7168;BME280;3625;51.762;14.320;2023-05-25T05:10:11;101486.44;;;10.39;100.00
7168;BME280;3625;51.762;14.320;2023-05-25T05:12:44;101478.50;;;10.46;100.00
7168;BME280;3625;51.762;14.320;2023-05-25T05:15:15;101455.56;;;10.42;100.00
7168;BME280;3625;51.762;14.320;2023-05-25T05:17:46;101474.81;;;10.72;100.00
7168;BME280;3625;51.762;14.320;2023-05-25T05:20:15;101478.22;;;10.89;100.00
7168;BME280;3625;51.762;14.320;2023-05-25T05:22:46;101483.38;;;11.06;100.00
7168;BME280;3625;51.762;14.320;2023-05-25T05:25:16;101491.16;;;11.25;100.00
7168;BME280;3625;51.762;14.320;2023-05-25T05:27:45;101498.91;;;11.47;100.00
7168;BME280;3625;51.762;14.320;2023-05-25T05:30:22;101502.34;;;11.58;100.00
7168;BME280;3625;51.762;14.320;2023-05-25T05:32:51;101504.00;;;11.68;100.00
7168;BME280;3625;51.762;14.320;2023-05-25T05:35:25;101505.69;;;11.78;100.00
7168;BME280;3625;51.762;14.320;2023-05-25T05:38:05;101504.69;;;11.91;100.00
7168;BME280;3625;51.762;14.320;2023-05-25T05:40:34;101504.59;;;12.02;100.00
7168;BME280;3625;51.762;14.320;2023-05-25T05:43:02;101504.44;;;12.11;100.00
7168;BME280;3625;51.762;14.320;2023-05-25T05:45:31;101502.56;;;12.22;100.00
7168;BME280;3625;51.762;14.320;2023-05-25T05:47:59;101503.31;;;12.33;100.00
7168;BME280;3625;51.762;14.320;2023-05-25T05:50:30;101506.75;;;12.40;100.00
7168;BME280;3625;51.762;14.320;2023-05-25T05:52:59;101509.28;;;12.49;100.00
7168;BME280;3625;51.762;14.320;2023-05-25T05:55:29;101432.81;;;12.13;100.00
7168;BME280;3625;51.762;14.320;2023-05-25T05:57:58;101509.13;;;12.61;100.00
7168;BME280;3625;51.762;14.320;2023-05-25T06:00:27;101500.19;;;12.68;100.00
7168;BME280;3625;51.762;14.320;2023-05-25T06:02:55;101501.84;;;12.74;100.00
7168;BME280;3625;51.762;14.320;2023-05-25T06:05:26;101507.94;;;12.80;100.00
7168;BME280;3625;51.762;14.320;2023-05-25T06:07:56;101444.72;;;12.45;100.00
7168;BME280;3625;51.762;14.320;2023-05-25T06:10:25;101394.78;;;12.12;100.00
7168;BME280;3625;51.762;14.320;2023-05-25T06:12:55;101534.31;;;12.96;100.00
7168;BME280;3625;51.762;14.320;2023-05-25T06:15:26;101536.06;;;12.97;100.00
7168;BME280;3625;51.762;14.320;2023-05-25T06:17:57;101528.91;;;13.02;100.00
7168;BME280;3625;51.762;14.320;2023-05-25T06:20:26;101526.13;;;13.08;100.00
7168;BME280;3625;51.762;14.320;2023-05-25T06:22:54;101531.31;;;13.20;100.00
7168;BME280;3625;51.762;14.320;2023-05-25T06:25:23;101538.28;;;13.27;100.00
7168;BME280;3625;51.762;14.320;2023-05-25T06:27:51;101535.50;;;13.35;100.00
7168;BME280;3625;51.762;14.320;2023-05-25T06:30:21;101542.44;;;13.43;100.00
7168;BME280;3625;51.762;14.320;2023-05-25T06:32:51;101533.53;;;13.47;100.00
7168;BME280;3625;51.762;14.320;2023-05-25T06:35:20;101537.81;;;13.54;100.00
7168;BME280;3625;51.762;14.320;2023-05-25T06:37:50;101542.13;;;13.62;100.00
7168;BME280;3625;51.762;14.320;2023-05-25T06:40:23;101539.31;;;13.69;100.00
7168;BME280;3625;51.762;14.320;2023-05-25T06:42:52;101537.56;;;13.70;100.00
7168;BME280;3625;51.762;14.320;2023-05-25T06:45:48;101539.28;;;13.74;100.00
7168;BME280;3625;51.762;14.320;2023-05-25T06:48:18;101543.63;;;13.76;99.07
7168;BME280;3625;51.762;14.320;2023-05-25T06:50:47;101549.75;;;13.83;98.22
7168;BME280;3625;51.762;14.320;2023-05-25T06:53:24;101540.66;;;13.93;97.96
7168;BME280;3625;51.762;14.320;2023-05-25T06:55:53;101534.25;;;14.03;97.75
7168;BME280;3625;51.762;14.320;2023-05-25T06:58:21;101520.19;;;13.98;97.56
7168;BME280;3625;51.762;14.320;2023-05-25T07:00:51;101543.78;;;14.16;96.33
7168;BME280;3625;51.762;14.320;2023-05-25T07:03:20;101540.06;;;14.25;95.90
7168;BME280;3625;51.762;14.320;2023-05-25T07:05:48;101541.69;;;14.32;95.17
7168;BME280;3625;51.762;14.320;2023-05-25T07:08:17;101537.13;;;14.37;95.20
7168;BME280;3625;51.762;14.320;2023-05-25T07:10:45;101544.97;;;14.46;95.73
7168;BME280;3625;51.762;14.320;2023-05-25T07:13:16;101542.09;;;14.55;95.28
7168;BME280;3625;51.762;14.320;2023-05-25T07:15:45;101538.34;;;14.65;95.45
7168;BME280;3625;51.762;14.320;2023-05-25T07:18:15;101540.75;;;14.78;95.00
7168;BME280;3625;51.762;14.320;2023-05-25T07:20:44;101552.16;;;14.83;91.56
7168;BME280;3625;51.762;14.320;2023-05-25T07:23:14;101539.66;;;14.86;90.72
7168;BME280;3625;51.762;14.320;2023-05-25T07:25:43;101541.25;;;14.95;91.00
7168;BME280;3625;51.762;14.320;2023-05-25T07:28:12;101547.19;;;15.06;91.23
7168;BME280;3625;51.762;14.320;2023-05-25T07:30:41;101482.16;;;14.76;90.50
7168;BME280;3625;51.762;14.320;2023-05-25T07:33:09;101557.34;;;15.27;90.69
7168;BME280;3625;51.762;14.320;2023-05-25T07:35:39;101514.19;;;15.12;89.64
7168;BME280;3625;51.762;14.320;2023-05-25T07:38:08;101508.00;;;15.11;86.69
7168;BME280;3625;51.762;14.320;2023-05-25T07:40:39;101554.31;;;15.42;86.74
7168;BME280;3625;51.762;14.320;2023-05-25T07:43:08;101547.13;;;15.46;85.49
7168;BME280;3625;51.762;14.320;2023-05-25T07:45:37;101552.31;;;15.51;85.51
7168;BME280;3625;51.762;14.320;2023-05-25T07:48:06;101483.88;;;15.16;85.22
7168;BME280;3625;51.762;14.320;2023-05-25T07:50:35;101549.41;;;15.63;84.89
7168;BME280;3625;51.762;14.320;2023-05-25T07:53:05;101545.50;;;15.74;85.17
7168;BME280;3625;51.762;14.320;2023-05-25T07:55:35;101495.38;;;15.53;85.39
7168;BME280;3625;51.762;14.320;2023-05-25T07:58:03;101490.72;;;15.63;84.08
7168;BME280;3625;51.762;14.320;2023-05-25T08:00:33;101466.91;;;15.55;83.48
7168;BME280;3625;51.762;14.320;2023-05-25T08:03:02;101441.16;;;15.53;82.09
7168;BME280;3625;51.762;14.320;2023-05-25T08:05:30;101564.00;;;16.16;77.01
7168;BME280;3625;51.762;14.320;2023-05-25T08:07:59;101563.00;;;16.18;76.43
7168;BME280;3625;51.762;14.320;2023-05-25T08:10:29;101562.72;;;16.29;77.22
7168;BME280;3625;51.762;14.320;2023-05-25T08:12:58;101543.81;;;16.37;75.07
7168;BME280;3625;51.762;14.320;2023-05-25T08:15:27;101560.09;;;16.58;73.26
7168;BME280;3625;51.762;14.320;2023-05-25T08:17:55;101559.78;;;16.69;73.31
7168;BME280;3625;51.762;14.320;2023-05-25T08:20:24;101558.28;;;16.90;72.13
7168;BME280;3625;51.762;14.320;2023-05-25T08:22:52;101563.50;;;16.94;71.91
7168;BME280;3625;51.762;14.320;2023-05-25T08:25:21;101557.53;;;16.86;69.58
7168;BME280;3625;51.762;14.320;2023-05-25T08:27:51;101564.47;;;16.92;66.03
7168;BME280;3625;51.762;14.320;2023-05-25T08:30:21;101565.72;;;17.08;66.35
7168;BME280;3625;51.762;14.320;2023-05-25T08:32:50;101564.22;;;17.27;66.00
7168;BME280;3625;51.762;14.320;2023-05-25T08:35:18;101523.81;;;17.37;64.13
7168;BME280;3625;51.762;14.320;2023-05-25T08:37:47;101559.88;;;18.04;62.34
7168;BME280;3625;51.762;14.320;2023-05-25T08:40:17;101494.44;;;18.11;57.70
7168;BME280;3625;51.762;14.320;2023-05-25T08:42:51;101582.47;;;18.70;52.87
7168;BME280;3625;51.762;14.320;2023-05-25T08:45:19;101589.00;;;18.38;54.60
7168;BME280;3625;51.762;14.320;2023-05-25T08:48:03;101574.38;;;18.46;55.05
7168;BME280;3625;51.762;14.320;2023-05-25T08:50:40;101576.22;;;18.69;54.25
7168;BME280;3625;51.762;14.320;2023-05-25T08:53:13;101572.69;;;19.14;53.73
7168;BME280;3625;51.762;14.320;2023-05-25T08:55:44;101545.34;;;19.49;51.53
7168;BME280;3625;51.762;14.320;2023-05-25T08:58:18;101491.72;;;19.26;49.68
7168;BME280;3625;51.762;14.320;2023-05-25T09:00:54;101591.03;;;19.70;49.05
7168;BME280;3625;51.762;14.320;2023-05-25T09:03:24;101591.69;;;19.75;49.00
7168;BME280;3625;51.762;14.320;2023-05-25T09:05:55;101594.69;;;19.89;49.34
7168;BME280;3625;51.762;14.320;2023-05-25T09:08:24;101599.91;;;19.92;48.57
7168;BME280;3625;51.762;14.320;2023-05-25T09:10:55;101591.56;;;19.98;48.93
7168;BME280;3625;51.762;14.320;2023-05-25T09:13:25;101601.31;;;19.80;49.26
7168;BME280;3625;51.762;14.320;2023-05-25T09:15:54;101601.75;;;19.48;50.05
7168;BME280;3625;51.762;14.320;2023-05-25T09:18:26;101592.94;;;19.44;50.90
7168;BME280;3625;51.762;14.320;2023-05-25T09:20:55;101595.91;;;19.60;49.75
7168;BME280;3625;51.762;14.320;2023-05-25T09:23:24;101535.34;;;19.73;49.71
7168;BME280;3625;51.762;14.320;2023-05-25T09:25:54;101587.59;;;20.49;47.23
7168;BME280;3625;51.762;14.320;2023-05-25T09:28:24;101599.50;;;21.01;45.14
7168;BME280;3625;51.762;14.320;2023-05-25T09:30:55;101603.19;;;20.80;45.27
7168;BME280;3625;51.762;14.320;2023-05-25T09:33:24;101580.06;;;20.37;45.48
7168;BME280;3625;51.762;14.320;2023-05-25T09:35:54;101601.66;;;19.93;46.18
7168;BME280;3625;51.762;14.320;2023-05-25T09:38:23;101599.03;;;19.49;47.12
7168;BME280;3625;51.762;14.320;2023-05-25T09:40:52;101545.50;;;19.01;47.96
7168;BME280;3625;51.762;14.320;2023-05-25T09:43:26;101587.47;;;19.47;47.45
7168;BME280;3625;51.762;14.320;2023-05-25T09:46:10;101586.63;;;20.09;47.21
7168;BME280;3625;51.762;14.320;2023-05-25T09:48:39;101592.44;;;20.98;46.09
7168;BME280;3625;51.762;14.320;2023-05-25T09:51:11;101601.41;;;21.90;44.43
7168;BME280;3625;51.762;14.320;2023-05-25T09:53:40;101600.34;;;22.61;43.74
7168;BME280;3625;51.762;14.320;2023-05-25T09:56:10;101605.69;;;22.95;42.75
7168;BME280;3625;51.762;14.320;2023-05-25T09:58:41;101614.78;;;22.60;41.14
7168;BME280;3625;51.762;14.320;2023-05-25T10:01:10;101614.19;;;21.86;42.07
7168;BME280;3625;51.762;14.320;2023-05-25T10:03:45;101607.03;;;21.49;42.86
7168;BME280;3625;51.762;14.320;2023-05-25T10:06:31;101600.97;;;21.27;43.26
7168;BME280;3625;51.762;14.320;2023-05-25T10:09:01;101610.00;;;21.26;44.05
7168;BME280;3625;51.762;14.320;2023-05-25T10:11:33;101587.13;;;20.97;44.01
7168;BME280;3625;51.762;14.320;2023-05-25T10:14:06;101604.44;;;21.10;44.45
7168;BME280;3625;51.762;14.320;2023-05-25T10:16:39;101606.88;;;20.38;44.81
7168;BME280;3625;51.762;14.320;2023-05-25T10:19:15;101601.88;;;20.09;46.26
7168;BME280;3625;51.762;14.320;2023-05-25T10:21:57;101600.19;;;20.26;46.32
7168;BME280;3625;51.762;14.320;2023-05-25T10:24:38;101601.75;;;20.32;45.83
7168;BME280;3625;51.762;14.320;2023-05-25T10:27:18;101598.59;;;20.22;46.44
7168;BME280;3625;51.762;14.320;2023-05-25T10:29:57;101563.44;;;20.07;46.50
7168;BME280;3625;51.762;14.320;2023-05-25T10:32:28;101594.31;;;20.39;46.96
7168;BME280;3625;51.762;14.320;2023-05-25T10:35:01;101595.66;;;20.67;47.03
7168;BME280;3625;51.762;14.320;2023-05-25T10:37:32;101594.63;;;20.90;45.88
7168;BME280;3625;51.762;14.320;2023-05-25T10:40:03;101599.91;;;20.73;45.85
7168;BME280;3625;51.762;14.320;2023-05-25T10:42:35;101600.22;;;20.47;46.61
7168;BME280;3625;51.762;14.320;2023-05-25T10:45:08;101606.53;;;20.05;44.49
7168;BME280;3625;51.762;14.320;2023-05-25T10:47:40;101598.38;;;19.65;44.63
7168;BME280;3625;51.762;14.320;2023-05-25T10:50:21;101598.06;;;19.72;45.03
7168;BME280;3625;51.762;14.320;2023-05-25T10:52:59;101596.16;;;19.96;44.18
7168;BME280;3625;51.762;14.320;2023-05-25T10:55:28;101472.59;;;19.55;43.77
7168;BME280;3625;51.762;14.320;2023-05-25T10:58:11;101588.81;;;20.60;42.67
7168;BME280;3625;51.762;14.320;2023-05-25T11:00:56;101573.28;;;21.04;42.52
7168;BME280;3625;51.762;14.320;2023-05-25T11:03:56;101548.41;;;21.37;42.76
7168;BME280;3625;51.762;14.320;2023-05-25T11:07:12;101584.50;;;21.52;41.69
7168;BME280;3625;51.762;14.320;2023-05-25T11:09:56;101553.06;;;20.77;42.43
7168;BME280;3625;51.762;14.320;2023-05-25T11:12:26;101579.00;;;20.59;43.46
7168;BME280;3625;51.762;14.320;2023-05-25T11:15:13;101509.38;;;20.14;43.91
7168;BME280;3625;51.762;14.320;2023-05-25T11:17:58;101570.34;;;20.32;44.09
7168;BME280;3625;51.762;14.320;2023-05-25T11:20:29;101563.72;;;20.41;44.30
7168;BME280;3625;51.762;14.320;2023-05-25T11:23:21;101572.78;;;20.78;44.33
7168;BME280;3625;51.762;14.320;2023-05-25T11:25:50;101566.91;;;21.07;43.37
7168;BME280;3625;51.762;14.320;2023-05-25T11:28:22;101570.16;;;21.51;43.03
7168;BME280;3625;51.762;14.320;2023-05-25T11:30:51;101575.09;;;21.77;40.63
7168;BME280;3625;51.762;14.320;2023-05-25T11:33:22;101573.19;;;21.97;40.46
7168;BME280;3625;51.762;14.320;2023-05-25T11:35:51;101565.41;;;22.42;40.30
7168;BME280;3625;51.762;14.320;2023-05-25T11:38:24;101567.78;;;22.81;39.62
7168;BME280;3625;51.762;14.320;2023-05-25T11:40:53;101564.31;;;23.11;39.38
7168;BME280;3625;51.762;14.320;2023-05-25T11:43:25;101561.69;;;22.78;38.88
7168;BME280;3625;51.762;14.320;2023-05-25T11:45:54;101555.72;;;22.05;39.61
7168;BME280;3625;51.762;14.320;2023-05-25T11:48:25;101560.97;;;21.72;41.04
7168;BME280;3625;51.762;14.320;2023-05-25T11:51:05;101560.50;;;21.81;40.78
7168;BME280;3625;51.762;14.320;2023-05-25T11:53:34;101558.97;;;22.12;40.51
7168;BME280;3625;51.762;14.320;2023-05-25T11:56:09;101551.06;;;22.57;40.33
7168;BME280;3625;51.762;14.320;2023-05-25T11:58:41;101549.94;;;23.10;39.85
7168;BME280;3625;51.762;14.320;2023-05-25T12:01:16;101547.81;;;23.78;38.78
7168;BME280;3625;51.762;14.320;2023-05-25T12:03:48;101543.09;;;24.40;38.11
7168;BME280;3625;51.762;14.320;2023-05-25T12:06:29;101552.84;;;24.85;37.76
7168;BME280;3625;51.762;14.320;2023-05-25T12:09:02;101554.19;;;25.06;36.95
7168;BME280;3625;51.762;14.320;2023-05-25T12:11:34;101548.84;;;25.19;36.00
7168;BME280;3625;51.762;14.320;2023-05-25T12:14:06;101552.59;;;24.47;33.64
7168;BME280;3625;51.762;14.320;2023-05-25T12:16:37;101543.38;;;24.35;34.55
7168;BME280;3625;51.762;14.320;2023-05-25T12:19:09;101513.19;;;24.13;34.76
7168;BME280;3625;51.762;14.320;2023-05-25T12:21:39;101552.63;;;23.87;34.86
7168;BME280;3625;51.762;14.320;2023-05-25T12:24:11;101553.97;;;23.35;36.05
7168;BME280;3625;51.762;14.320;2023-05-25T12:26:47;101538.72;;;23.33;36.58
7168;BME280;3625;51.762;14.320;2023-05-25T12:29:16;101539.34;;;23.07;36.05
7168;BME280;3625;51.762;14.320;2023-05-25T12:31:45;101532.34;;;23.03;36.63
7168;BME280;3625;51.762;14.320;2023-05-25T12:34:17;101463.66;;;22.93;36.37
7168;BME280;3625;51.762;14.320;2023-05-25T12:36:47;101496.75;;;22.97;35.97
7168;BME280;3625;51.762;14.320;2023-05-25T12:39:33;101518.16;;;22.84;36.63
7168;BME280;3625;51.762;14.320;2023-05-25T12:42:12;101527.47;;;22.94;37.54
7168;BME280;3625;51.762;14.320;2023-05-25T12:44:45;101533.56;;;23.29;36.72
7168;BME280;3625;51.762;14.320;2023-05-25T12:47:16;101532.88;;;23.25;36.24
7168;BME280;3625;51.762;14.320;2023-05-25T12:49:49;101525.59;;;22.47;36.96
7168;BME280;3625;51.762;14.320;2023-05-25T12:52:32;101521.94;;;21.28;39.22
7168;BME280;3625;51.762;14.320;2023-05-25T12:55:23;101515.88;;;21.41;39.17
7168;BME280;3625;51.762;14.320;2023-05-25T12:57:57;101497.22;;;21.20;39.75
7168;BME280;3625;51.762;14.320;2023-05-25T13:00:31;101509.50;;;21.61;39.20
7168;BME280;3625;51.762;14.320;2023-05-25T13:03:03;101505.81;;;21.97;38.88
7168;BME280;3625;51.762;14.320;2023-05-25T13:05:37;101508.59;;;22.45;37.92
7168;BME280;3625;51.762;14.320;2023-05-25T13:08:06;101501.13;;;22.66;36.72
7168;BME280;3625;51.762;14.320;2023-05-25T13:10:37;101477.16;;;22.77;36.79
7168;BME280;3625;51.762;14.320;2023-05-25T13:13:06;101497.53;;;22.99;36.52
7168;BME280;3625;51.762;14.320;2023-05-25T13:15:34;101502.56;;;23.05;36.37
7168;BME280;3625;51.762;14.320;2023-05-25T13:18:04;101496.16;;;22.91;36.74
7168;BME280;3625;51.762;14.320;2023-05-25T13:20:35;101495.00;;;22.80;37.55
7168;BME280;3625;51.762;14.320;2023-05-25T13:23:04;101435.47;;;22.03;37.10